This is the latest recevied weather packets stored in our database for station/object HB9BHU-8. If no packets are shown the sender has not sent any weather packets the latest 10 day(s).
| Time | Temp. | Humidity | Pressure | Rain* | Wind** | Luminosity | Snow |
|---|---|---|---|---|---|---|---|
| 1777479309 | 19.44° C | 43% | 1019.3 hPa | 0 mm | - | - | - |
| 1777478407 | 19.44° C | 44% | 1019.4 hPa | 0 mm | - | - | - |
| 1777477508 | 20° C | 44% | 1019.3 hPa | 0 mm | - | - | - |
| 1777469468 | 18.89° C | 51% | 1019.6 hPa | 0 mm | - | - | - |
| 1777468560 | 19.44° C | 52% | 1019.7 hPa | 0 mm | - | - | - |
| 1777467659 | 19.44° C | 54% | 1019.6 hPa | 0 mm | - | - | - |
| 1777464052 | 18.33° C | 56% | 1019.8 hPa | 0 mm | - | - | - |
| 1777456837 | 13.89° C | 65% | 1020 hPa | 0 mm | - | - | - |
| 1777452329 | 14.44° C | 63% | 1019.9 hPa | 0 mm | - | - | - |
| 1777448721 | 13.33° C | 67% | 1019.6 hPa | 0 mm | - | - | - |
| 1777445110 | 12.22° C | 74% | 1019.5 hPa | 0 mm | - | - | - |
| 1777442461 | 12.22° C | 74% | 1019.2 hPa | 0 mm | - | - | - |
| 1777435242 | 12.22° C | 82% | 1018.6 hPa | 0 mm | - | - | - |
| 1777433443 | 12.22° C | 88% | 1018.5 hPa | 0 mm | - | - | - |
| 1777429838 | 12.22° C | 87% | 1018.2 hPa | 0 mm | - | - | - |
| 1777428937 | 12.22° C | 87% | 1018.1 hPa | 0 mm | - | - | - |
| 1777417220 | 13.33° C | 79% | 1018.3 hPa | 0 mm | - | - | - |
| 1777413614 | 13.89° C | 76% | 1018.3 hPa | 0 mm | - | - | - |
| 1777412713 | 13.89° C | 77% | 1018.3 hPa | 0 mm | - | - | - |
| 1777407311 | 15° C | 71% | 1018.2 hPa | 0 mm | - | - | - |
| 1777401907 | 15° C | 70% | 1017.2 hPa | 0 mm | - | - | - |
| 1777400166 | 15.56° C | 69% | 1017.3 hPa | 0 mm | - | - | - |
| 1777399205 | 16.11° C | 70% | 1017.4 hPa | 0 mm | - | - | - |
| 1777397405 | 16.11° C | 70% | 1017.3 hPa | 0 mm | - | - | - |
| 1777393803 | 16.67° C | 71% | 1017.1 hPa | 0 mm | - | - | - |
* Rain latest hour (hover to see other rain measurements)
** Current wind speed in m/s (hover to see current wind gust speed)